sensor_id;sensor_type;location;lat;lon;timestamp;pressure;altitude;pressure_sealevel;temperature;humidity
62926;BME280;55732;52.248;-0.844;2023-05-01T00:00:50;100865.39;;;12.46;80.01
62926;BME280;55732;52.248;-0.844;2023-05-01T00:03:17;100863.81;;;12.43;79.94
62926;BME280;55732;52.248;-0.844;2023-05-01T00:05:45;100862.75;;;12.41;80.28
62926;BME280;55732;52.248;-0.844;2023-05-01T00:08:11;100860.64;;;12.39;80.27
62926;BME280;55732;52.248;-0.844;2023-05-01T00:10:37;100862.43;;;12.37;80.18
62926;BME280;55732;52.248;-0.844;2023-05-01T00:13:03;100862.44;;;12.35;80.10
62926;BME280;55732;52.248;-0.844;2023-05-01T00:15:30;100862.44;;;12.35;80.09
62926;BME280;55732;52.248;-0.844;2023-05-01T00:17:55;100860.86;;;12.34;80.24
62926;BME280;55732;52.248;-0.844;2023-05-01T00:20:21;100855.39;;;12.31;80.34
62926;BME280;55732;52.248;-0.844;2023-05-01T00:22:48;100848.34;;;12.26;80.29
62926;BME280;55732;52.248;-0.844;2023-05-01T00:25:13;100847.45;;;12.27;80.32
62926;BME280;55732;52.248;-0.844;2023-05-01T00:27:39;100845.89;;;12.23;80.16
62926;BME280;55732;52.248;-0.844;2023-05-01T00:30:05;100839.36;;;12.20;80.17
62926;BME280;55732;52.248;-0.844;2023-05-01T00:32:31;100835.14;;;12.17;80.26
62926;BME280;55732;52.248;-0.844;2023-05-01T00:34:58;100834.45;;;12.13;80.23
62926;BME280;55732;52.248;-0.844;2023-05-01T00:37:24;100830.58;;;12.09;80.32
62926;BME280;55732;52.248;-0.844;2023-05-01T00:39:49;100829.00;;;12.05;80.31
62926;BME280;55732;52.248;-0.844;2023-05-01T00:42:15;100824.96;;;12.00;80.39
62926;BME280;55732;52.248;-0.844;2023-05-01T00:44:40;100822.85;;;11.95;80.46
62926;BME280;55732;52.248;-0.844;2023-05-01T00:47:05;100819.01;;;11.90;80.52
62926;BME280;55732;52.248;-0.844;2023-05-01T00:49:31;100813.19;;;11.85;80.48
62926;BME280;55732;52.248;-0.844;2023-05-01T00:51:57;100811.45;;;11.80;80.50
62926;BME280;55732;52.248;-0.844;2023-05-01T00:54:24;100806.48;;;11.74;80.65
62926;BME280;55732;52.248;-0.844;2023-05-01T00:56:52;100804.37;;;11.69;80.75
62926;BME280;55732;52.248;-0.844;2023-05-01T00:59:17;100803.51;;;11.64;80.80
62926;BME280;55732;52.248;-0.844;2023-05-01T01:01:43;100798.92;;;11.58;81.01
62926;BME280;55732;52.248;-0.844;2023-05-01T01:04:09;100799.46;;;11.52;81.21
62926;BME280;55732;52.248;-0.844;2023-05-01T01:14:58;100791.92;;;11.29;81.21
62926;BME280;55732;52.248;-0.844;2023-05-01T01:23:04;100789.27;;;11.12;81.34
62926;BME280;55732;52.248;-0.844;2023-05-01T01:31:17;100779.05;;;10.98;81.94
62926;BME280;55732;52.248;-0.844;2023-05-01T01:36:49;100779.05;;;10.91;82.36
62926;BME280;55732;52.248;-0.844;2023-05-01T01:39:28;100779.41;;;10.90;82.51
62926;BME280;55732;52.248;-0.844;2023-05-01T01:41:57;100775.89;;;10.90;82.74
62926;BME280;55732;52.248;-0.844;2023-05-01T01:44:40;100774.99;;;10.89;82.80
62926;BME280;55732;52.248;-0.844;2023-05-01T01:47:10;100777.99;;;10.89;82.97
62926;BME280;55732;52.248;-0.844;2023-05-01T01:49:39;100773.06;;;10.87;82.77
62926;BME280;55732;52.248;-0.844;2023-05-01T01:52:07;100774.48;;;10.83;82.88
62926;BME280;55732;52.248;-0.844;2023-05-01T01:54:39;100763.90;;;10.80;83.04
62926;BME280;55732;52.248;-0.844;2023-05-01T01:57:07;100759.14;;;10.78;83.12
62926;BME280;55732;52.248;-0.844;2023-05-01T01:59:35;100756.49;;;10.78;83.36
62926;BME280;55732;52.248;-0.844;2023-05-01T02:02:01;100751.04;;;10.79;83.29
62926;BME280;55732;52.248;-0.844;2023-05-01T02:04:28;100744.88;;;10.76;83.51
62926;BME280;55732;52.248;-0.844;2023-05-01T02:06:58;100741.89;;;10.82;83.53
62926;BME280;55732;52.248;-0.844;2023-05-01T02:09:27;100740.14;;;10.85;83.64
62926;BME280;55732;52.248;-0.844;2023-05-01T02:11:53;100741.70;;;10.89;83.85
62926;BME280;55732;52.248;-0.844;2023-05-01T02:14:24;100738.19;;;10.93;83.92
62926;BME280;55732;52.248;-0.844;2023-05-01T02:16:51;100738.18;;;10.98;83.93
62926;BME280;55732;52.248;-0.844;2023-05-01T02:19:17;100739.41;;;11.01;83.92
62926;BME280;55732;52.248;-0.844;2023-05-01T02:21:44;100738.54;;;11.04;83.86
62926;BME280;55732;52.248;-0.844;2023-05-01T02:24:11;100735.37;;;11.05;83.84
62926;BME280;55732;52.248;-0.844;2023-05-01T02:26:42;100735.55;;;11.06;83.90
62926;BME280;55732;52.248;-0.844;2023-05-01T02:29:12;100731.14;;;11.09;83.90
62926;BME280;55732;52.248;-0.844;2023-05-01T02:31:37;100731.29;;;11.10;84.02
62926;BME280;55732;52.248;-0.844;2023-05-01T02:34:03;100721.26;;;11.09;84.02
62926;BME280;55732;52.248;-0.844;2023-05-01T02:36:28;100724.95;;;11.14;83.90
62926;BME280;55732;52.248;-0.844;2023-05-01T02:38:54;100721.08;;;11.15;83.68
62926;BME280;55732;52.248;-0.844;2023-05-01T02:41:20;100722.84;;;11.14;83.56
62926;BME280;55732;52.248;-0.844;2023-05-01T02:43:52;100720.02;;;11.14;83.67
62926;BME280;55732;52.248;-0.844;2023-05-01T02:46:20;100719.14;;;11.14;83.88
62926;BME280;55732;52.248;-0.844;2023-05-01T02:48:48;100720.38;;;11.14;83.75
62926;BME280;55732;52.248;-0.844;2023-05-01T02:51:14;100716.14;;;11.15;83.68
62926;BME280;55732;52.248;-0.844;2023-05-01T02:53:41;100712.44;;;11.16;83.60
62926;BME280;55732;52.248;-0.844;2023-05-01T02:56:07;100710.33;;;11.15;83.76
62926;BME280;55732;52.248;-0.844;2023-05-01T02:58:33;100714.20;;;11.15;83.73
62926;BME280;55732;52.248;-0.844;2023-05-01T03:00:58;100715.61;;;11.14;83.64
62926;BME280;55732;52.248;-0.844;2023-05-01T03:03:24;100713.67;;;11.14;83.59
62926;BME280;55732;52.248;-0.844;2023-05-01T03:05:49;100715.27;;;11.13;83.56
62926;BME280;55732;52.248;-0.844;2023-05-01T03:08:16;100713.50;;;11.13;83.71
62926;BME280;55732;52.248;-0.844;2023-05-01T03:10:42;100710.50;;;11.13;83.57
62926;BME280;55732;52.248;-0.844;2023-05-01T03:13:07;100709.27;;;11.12;83.67
62926;BME280;55732;52.248;-0.844;2023-05-01T03:15:34;100708.58;;;11.13;83.71
62926;BME280;55732;52.248;-0.844;2023-05-01T03:18:00;100705.75;;;11.14;83.66
62926;BME280;55732;52.248;-0.844;2023-05-01T03:20:26;100702.74;;;11.12;83.49
62926;BME280;55732;52.248;-0.844;2023-05-01T03:22:51;100706.98;;;11.09;83.08
62926;BME280;55732;52.248;-0.844;2023-05-01T03:25:16;100706.11;;;11.04;83.12
62926;BME280;55732;52.248;-0.844;2023-05-01T03:27:42;100704.88;;;11.01;83.31
62926;BME280;55732;52.248;-0.844;2023-05-01T03:30:08;100711.59;;;10.95;83.07
62926;BME280;55732;52.248;-0.844;2023-05-01T03:32:34;100710.00;;;10.91;83.24
62926;BME280;55732;52.248;-0.844;2023-05-01T03:35:01;100712.30;;;10.85;83.25
62926;BME280;55732;52.248;-0.844;2023-05-01T03:37:27;100707.90;;;10.80;83.26
62926;BME280;55732;52.248;-0.844;2023-05-01T03:39:52;100708.41;;;10.76;83.41
62926;BME280;55732;52.248;-0.844;2023-05-01T03:42:18;100703.85;;;10.72;83.45
62926;BME280;55732;52.248;-0.844;2023-05-01T03:44:44;100702.27;;;10.69;83.56
62926;BME280;55732;52.248;-0.844;2023-05-01T03:47:09;100702.96;;;10.66;83.67
62926;BME280;55732;52.248;-0.844;2023-05-01T03:49:35;100703.48;;;10.62;83.77
62926;BME280;55732;52.248;-0.844;2023-05-01T03:52:00;100705.61;;;10.60;83.65
62926;BME280;55732;52.248;-0.844;2023-05-01T03:54:25;100705.23;;;10.56;83.58
62926;BME280;55732;52.248;-0.844;2023-05-01T03:56:52;100703.30;;;10.53;83.74
62926;BME280;55732;52.248;-0.844;2023-05-01T03:59:17;100699.78;;;10.51;83.78
62926;BME280;55732;52.248;-0.844;2023-05-01T04:01:43;100698.38;;;10.47;83.82
62926;BME280;55732;52.248;-0.844;2023-05-01T04:04:09;100697.30;;;10.44;84.09
62926;BME280;55732;52.248;-0.844;2023-05-01T04:06:34;100700.30;;;10.43;84.03
62926;BME280;55732;52.248;-0.844;2023-05-01T04:09:02;100701.35;;;10.43;84.18
62926;BME280;55732;52.248;-0.844;2023-05-01T04:11:27;100706.46;;;10.44;84.24
62926;BME280;55732;52.248;-0.844;2023-05-01T04:13:53;100704.54;;;10.45;84.35
62926;BME280;55732;52.248;-0.844;2023-05-01T04:16:18;100703.48;;;10.47;84.25
62926;BME280;55732;52.248;-0.844;2023-05-01T04:18:43;100705.61;;;10.48;84.23
62926;BME280;55732;52.248;-0.844;2023-05-01T04:21:09;100705.61;;;10.49;84.33
62926;BME280;55732;52.248;-0.844;2023-05-01T04:23:34;100706.66;;;10.50;84.33
62926;BME280;55732;52.248;-0.844;2023-05-01T04:26:00;100708.59;;;10.47;84.30
62926;BME280;55732;52.248;-0.844;2023-05-01T04:28:25;100706.83;;;10.50;84.54
62926;BME280;55732;52.248;-0.844;2023-05-01T04:30:52;100704.90;;;10.50;84.54
62926;BME280;55732;52.248;-0.844;2023-05-01T04:33:17;100704.19;;;10.50;84.36
62926;BME280;55732;52.248;-0.844;2023-05-01T04:35:42;100704.36;;;10.50;84.50
62926;BME280;55732;52.248;-0.844;2023-05-01T04:38:08;100708.05;;;10.51;84.51
62926;BME280;55732;52.248;-0.844;2023-05-01T04:40:34;100708.05;;;10.52;84.64
62926;BME280;55732;52.248;-0.844;2023-05-01T04:43:00;100708.05;;;10.53;84.56
62926;BME280;55732;52.248;-0.844;2023-05-01T04:45:25;100707.35;;;10.55;84.53
62926;BME280;55732;52.248;-0.844;2023-05-01T04:47:51;100711.59;;;10.56;84.56
62926;BME280;55732;52.248;-0.844;2023-05-01T04:50:16;100714.05;;;10.57;84.45
62926;BME280;55732;52.248;-0.844;2023-05-01T04:52:42;100713.35;;;10.58;84.39
62926;BME280;55732;52.248;-0.844;2023-05-01T04:55:07;100720.22;;;10.59;84.26
62926;BME280;55732;52.248;-0.844;2023-05-01T04:57:35;100720.75;;;10.61;84.48
62926;BME280;55732;52.248;-0.844;2023-05-01T05:00:01;100721.79;;;10.64;84.29
62926;BME280;55732;52.248;-0.844;2023-05-01T05:02:27;100721.80;;;10.66;84.29
62926;BME280;55732;52.248;-0.844;2023-05-01T05:04:53;100728.51;;;10.69;84.18
62926;BME280;55732;52.248;-0.844;2023-05-01T05:07:19;100724.98;;;10.72;84.40
62926;BME280;55732;52.248;-0.844;2023-05-01T05:09:45;100723.91;;;10.74;84.29
62926;BME280;55732;52.248;-0.844;2023-05-01T05:12:10;100726.55;;;10.76;84.18
62926;BME280;55732;52.248;-0.844;2023-05-01T05:14:36;100722.15;;;10.78;84.15
62926;BME280;55732;52.248;-0.844;2023-05-01T05:17:01;100724.98;;;10.79;84.20
62926;BME280;55732;52.248;-0.844;2023-05-01T05:19:27;100728.15;;;10.80;84.08
62926;BME280;55732;52.248;-0.844;2023-05-01T05:21:52;100727.80;;;10.81;84.17
62926;BME280;55732;52.248;-0.844;2023-05-01T05:24:18;100730.80;;;10.83;84.30
62926;BME280;55732;52.248;-0.844;2023-05-01T05:26:43;100733.98;;;10.84;83.96
62926;BME280;55732;52.248;-0.844;2023-05-01T05:29:08;100730.79;;;10.86;83.96
62926;BME280;55732;52.248;-0.844;2023-05-01T05:31:34;100737.66;;;10.91;83.93
62926;BME280;55732;52.248;-0.844;2023-05-01T05:33:59;100739.42;;;10.93;83.83
62926;BME280;55732;52.248;-0.844;2023-05-01T05:36:25;100739.25;;;10.95;83.42
62926;BME280;55732;52.248;-0.844;2023-05-01T05:38:51;100738.54;;;10.96;83.49
62926;BME280;55732;52.248;-0.844;2023-05-01T05:41:17;100737.13;;;10.99;83.47
62926;BME280;55732;52.248;-0.844;2023-05-01T05:43:42;100738.89;;;11.03;83.40
62926;BME280;55732;52.248;-0.844;2023-05-01T05:46:08;100736.95;;;11.07;83.44
62926;BME280;55732;52.248;-0.844;2023-05-01T05:48:33;100739.75;;;11.12;83.51
62926;BME280;55732;52.248;-0.844;2023-05-01T05:50:59;100743.45;;;11.14;83.08
62926;BME280;55732;52.248;-0.844;2023-05-01T05:53:24;100743.81;;;11.17;83.19
62926;BME280;55732;52.248;-0.844;2023-05-01T05:55:50;100746.98;;;11.19;82.98
62926;BME280;55732;52.248;-0.844;2023-05-01T05:58:16;100748.75;;;11.19;82.99
62926;BME280;55732;52.248;-0.844;2023-05-01T06:00:50;100747.52;;;11.20;82.88
62926;BME280;55732;52.248;-0.844;2023-05-01T06:03:17;100748.03;;;11.20;82.91
62926;BME280;55732;52.248;-0.844;2023-05-01T06:05:43;100748.73;;;11.22;82.79
62926;BME280;55732;52.248;-0.844;2023-05-01T06:08:10;100748.20;;;11.22;82.84
62926;BME280;55732;52.248;-0.844;2023-05-01T06:10:36;100750.66;;;11.24;82.87
62926;BME280;55732;52.248;-0.844;2023-05-01T06:13:04;100746.27;;;11.30;82.98
62926;BME280;55732;52.248;-0.844;2023-05-01T06:15:32;100748.88;;;11.49;82.68
62926;BME280;55732;52.248;-0.844;2023-05-01T06:17:57;100752.98;;;11.97;82.06
62926;BME280;55732;52.248;-0.844;2023-05-01T06:20:23;100751.17;;;12.39;81.30
62926;BME280;55732;52.248;-0.844;2023-05-01T06:22:48;100748.02;;;12.62;80.64
62926;BME280;55732;52.248;-0.844;2023-05-01T06:25:14;100747.27;;;12.67;80.23
62926;BME280;55732;52.248;-0.844;2023-05-01T06:27:39;100746.38;;;12.70;80.02
62926;BME280;55732;52.248;-0.844;2023-05-01T06:30:05;100742.85;;;12.70;79.51
62926;BME280;55732;52.248;-0.844;2023-05-01T06:32:31;100745.67;;;12.71;79.20
62926;BME280;55732;52.248;-0.844;2023-05-01T06:34:56;100740.66;;;12.77;79.22
62926;BME280;55732;52.248;-0.844;2023-05-01T06:37:22;100743.60;;;12.85;78.90
62926;BME280;55732;52.248;-0.844;2023-05-01T06:39:47;100743.73;;;12.93;78.54
62926;BME280;55732;52.248;-0.844;2023-05-01T06:42:13;100742.45;;;12.98;78.29
62926;BME280;55732;52.248;-0.844;2023-05-01T06:44:41;100746.58;;;13.09;78.02
62926;BME280;55732;52.248;-0.844;2023-05-01T06:47:06;100746.89;;;13.18;77.97
62926;BME280;55732;52.248;-0.844;2023-05-01T06:49:32;100750.50;;;13.29;77.72
62926;BME280;55732;52.248;-0.844;2023-05-01T06:51:58;100748.55;;;13.46;77.24
62926;BME280;55732;52.248;-0.844;2023-05-01T06:54:23;100746.81;;;13.75;76.85
62926;BME280;55732;52.248;-0.844;2023-05-01T06:56:52;100747.31;;;14.06;76.50
62926;BME280;55732;52.248;-0.844;2023-05-01T06:59:18;100754.17;;;14.24;76.13
62926;BME280;55732;52.248;-0.844;2023-05-01T07:01:43;100763.05;;;14.23;75.59
62926;BME280;55732;52.248;-0.844;2023-05-01T07:04:09;100760.74;;;14.09;75.37
62926;BME280;55732;52.248;-0.844;2023-05-01T07:06:35;100767.60;;;13.98;75.21
62926;BME280;55732;52.248;-0.844;2023-05-01T07:09:01;100767.61;;;13.83;75.41
62926;BME280;55732;52.248;-0.844;2023-05-01T07:11:27;100771.65;;;13.69;75.50
62926;BME280;55732;52.248;-0.844;2023-05-01T07:13:53;100775.69;;;13.57;75.60
62926;BME280;55732;52.248;-0.844;2023-05-01T07:16:18;100778.66;;;13.43;75.80
62926;BME280;55732;52.248;-0.844;2023-05-01T07:18:44;100772.81;;;13.27;76.22
62926;BME280;55732;52.248;-0.844;2023-05-01T07:21:10;100777.92;;;13.26;76.26
62926;BME280;55732;52.248;-0.844;2023-05-01T07:23:36;100779.22;;;13.22;76.43
62926;BME280;55732;52.248;-0.844;2023-05-01T07:26:02;100782.78;;;13.18;76.57
62926;BME280;55732;52.248;-0.844;2023-05-01T07:28:29;100779.96;;;13.13;76.39
62926;BME280;55732;52.248;-0.844;2023-05-01T07:30:54;100778.76;;;13.10;76.58
62926;BME280;55732;52.248;-0.844;2023-05-01T07:33:19;100781.77;;;13.09;76.72
62926;BME280;55732;52.248;-0.844;2023-05-01T07:35:45;100783.38;;;13.07;76.77
62926;BME280;55732;52.248;-0.844;2023-05-01T07:38:11;100786.75;;;13.06;76.83
62926;BME280;55732;52.248;-0.844;2023-05-01T07:40:37;100787.98;;;13.05;76.90
62926;BME280;55732;52.248;-0.844;2023-05-01T07:43:03;100789.40;;;13.04;76.89
62926;BME280;55732;52.248;-0.844;2023-05-01T07:45:29;100790.11;;;13.05;76.82
62926;BME280;55732;52.248;-0.844;2023-05-01T07:47:54;100789.05;;;13.06;76.77
62926;BME280;55732;52.248;-0.844;2023-05-01T07:50:21;100781.27;;;13.07;76.90
62926;BME280;55732;52.248;-0.844;2023-05-01T07:52:46;100783.15;;;13.15;76.91
62926;BME280;55732;52.248;-0.844;2023-05-01T07:55:12;100786.77;;;13.26;76.73
62926;BME280;55732;52.248;-0.844;2023-05-01T07:57:37;100786.67;;;13.38;76.52
62926;BME280;55732;52.248;-0.844;2023-05-01T08:00:03;100791.33;;;13.49;76.33
62926;BME280;55732;52.248;-0.844;2023-05-01T08:02:29;100796.36;;;13.60;76.13
62926;BME280;55732;52.248;-0.844;2023-05-01T08:04:54;100801.41;;;13.68;75.85
62926;BME280;55732;52.248;-0.844;2023-05-01T08:07:20;100796.90;;;13.77;75.54
62926;BME280;55732;52.248;-0.844;2023-05-01T08:09:45;100800.83;;;13.88;75.67
62926;BME280;55732;52.248;-0.844;2023-05-01T08:12:11;100796.77;;;14.03;75.27
62926;BME280;55732;52.248;-0.844;2023-05-01T08:14:37;100794.65;;;14.16;75.00
62926;BME280;55732;52.248;-0.844;2023-05-01T08:17:02;100793.33;;;14.38;74.85
62926;BME280;55732;52.248;-0.844;2023-05-01T08:19:27;100793.56;;;14.60;74.32
62926;BME280;55732;52.248;-0.844;2023-05-01T08:21:53;100793.02;;;14.84;73.84
62926;BME280;55732;52.248;-0.844;2023-05-01T08:24:18;100794.52;;;15.12;73.35
62926;BME280;55732;52.248;-0.844;2023-05-01T08:26:44;100791.06;;;16.05;71.60
62926;BME280;55732;52.248;-0.844;2023-05-01T08:29:10;100788.16;;;16.58;69.80
62926;BME280;55732;52.248;-0.844;2023-05-01T08:31:35;100789.08;;;17.24;68.54
62926;BME280;55732;52.248;-0.844;2023-05-01T08:34:03;100791.35;;;17.67;67.26
62926;BME280;55732;52.248;-0.844;2023-05-01T08:36:28;100798.15;;;17.85;66.63
62926;BME280;55732;52.248;-0.844;2023-05-01T08:38:55;100797.09;;;18.17;65.71
62926;BME280;55732;52.248;-0.844;2023-05-01T08:41:22;100798.98;;;18.19;65.09
62926;BME280;55732;52.248;-0.844;2023-05-01T08:43:48;100797.80;;;18.35;64.19
62926;BME280;55732;52.248;-0.844;2023-05-01T08:48:55;100797.60;;;18.83;62.72
62926;BME280;55732;52.248;-0.844;2023-05-01T08:51:24;100797.77;;;19.26;61.77
62926;BME280;55732;52.248;-0.844;2023-05-01T08:53:50;100801.63;;;19.61;60.75
62926;BME280;55732;52.248;-0.844;2023-05-01T08:56:17;100802.20;;;19.60;60.23
62926;BME280;55732;52.248;-0.844;2023-05-01T08:58:44;100801.69;;;19.48;60.27
62926;BME280;55732;52.248;-0.844;2023-05-01T09:01:14;100804.94;;;19.26;60.27
62926;BME280;55732;52.248;-0.844;2023-05-01T09:03:41;100801.89;;;18.99;60.55
62926;BME280;55732;52.248;-0.844;2023-05-01T09:06:09;100805.89;;;18.87;60.37
62926;BME280;55732;52.248;-0.844;2023-05-01T09:08:35;100814.48;;;18.79;60.71
62926;BME280;55732;52.248;-0.844;2023-05-01T09:11:01;100813.83;;;18.54;60.87
62926;BME280;55732;52.248;-0.844;2023-05-01T09:13:27;100814.44;;;18.39;61.07
62926;BME280;55732;52.248;-0.844;2023-05-01T09:15:53;100815.94;;;18.25;60.94
62926;BME280;55732;52.248;-0.844;2023-05-01T09:18:18;100821.63;;;18.31;60.85
62926;BME280;55732;52.248;-0.844;2023-05-01T09:20:44;100826.08;;;18.37;60.39
62926;BME280;55732;52.248;-0.844;2023-05-01T09:23:10;100827.12;;;18.38;60.06
62926;BME280;55732;52.248;-0.844;2023-05-01T09:25:35;100830.33;;;18.50;59.89
62926;BME280;55732;52.248;-0.844;2023-05-01T09:28:04;100834.41;;;18.76;59.19
62926;BME280;55732;52.248;-0.844;2023-05-01T09:30:31;100835.23;;;18.83;58.67
62926;BME280;55732;52.248;-0.844;2023-05-01T09:35:48;100836.23;;;19.08;57.68
62926;BME280;55732;52.248;-0.844;2023-05-01T09:38:22;100837.73;;;19.06;57.72
62926;BME280;55732;52.248;-0.844;2023-05-01T09:40:48;100840.92;;;18.78;57.92
62926;BME280;55732;52.248;-0.844;2023-05-01T09:43:23;100845.75;;;18.60;58.35
62926;BME280;55732;52.248;-0.844;2023-05-01T09:46:07;100848.67;;;18.57;58.13
62926;BME280;55732;52.248;-0.844;2023-05-01T09:48:34;100847.05;;;18.51;58.19
62926;BME280;55732;52.248;-0.844;2023-05-01T09:51:28;100842.39;;;18.40;58.31
62926;BME280;55732;52.248;-0.844;2023-05-01T09:53:58;100848.90;;;18.31;58.42
62926;BME280;55732;52.248;-0.844;2023-05-01T09:56:26;100850.19;;;18.24;58.57
62926;BME280;55732;52.248;-0.844;2023-05-01T09:58:53;100853.05;;;18.23;58.18
62926;BME280;55732;52.248;-0.844;2023-05-01T10:01:40;100847.70;;;18.11;58.08
62926;BME280;55732;52.248;-0.844;2023-05-01T10:04:06;100844.13;;;17.85;58.66
62926;BME280;55732;52.248;-0.844;2023-05-01T10:06:34;100841.02;;;17.68;59.01
62926;BME280;55732;52.248;-0.844;2023-05-01T10:09:01;100848.31;;;17.61;59.42
62926;BME280;55732;52.248;-0.844;2023-05-01T10:11:27;100849.71;;;17.55;59.57
62926;BME280;55732;52.248;-0.844;2023-05-01T10:14:07;100851.17;;;17.53;59.82
62926;BME280;55732;52.248;-0.844;2023-05-01T10:16:34;100853.33;;;17.52;59.85
62926;BME280;55732;52.248;-0.844;2023-05-01T10:19:03;100852.28;;;17.80;59.41
62926;BME280;55732;52.248;-0.844;2023-05-01T10:21:32;100855.44;;;17.95;58.86
62926;BME280;55732;52.248;-0.844;2023-05-01T10:23:59;100850.66;;;18.01;58.51
62926;BME280;55732;52.248;-0.844;2023-05-01T10:26:26;100855.49;;;18.25;58.10
62926;BME280;55732;52.248;-0.844;2023-05-01T10:28:52;100850.80;;;18.52;57.67
62926;BME280;55732;52.248;-0.844;2023-05-01T10:31:17;100849.60;;;18.75;57.04
62926;BME280;55732;52.248;-0.844;2023-05-01T10:33:44;100845.39;;;19.07;56.29
62926;BME280;55732;52.248;-0.844;2023-05-01T10:36:16;100841.79;;;19.51;56.25
62926;BME280;55732;52.248;-0.844;2023-05-01T10:38:43;100844.25;;;19.84;55.11
62926;BME280;55732;52.248;-0.844;2023-05-01T10:41:15;100842.48;;;20.13;55.04
62926;BME280;55732;52.248;-0.844;2023-05-01T10:43:41;100846.71;;;20.34;53.75
62926;BME280;55732;52.248;-0.844;2023-05-01T10:51:13;100848.77;;;20.65;53.05
62926;BME280;55732;52.248;-0.844;2023-05-01T10:53:44;100852.13;;;20.57;52.15
62926;BME280;55732;52.248;-0.844;2023-05-01T10:58:59;100845.23;;;20.82;52.23
62926;BME280;55732;52.248;-0.844;2023-05-01T11:04:07;100847.83;;;20.75;51.85
62926;BME280;55732;52.248;-0.844;2023-05-01T11:09:52;100847.27;;;20.19;51.87
62926;BME280;55732;52.248;-0.844;2023-05-01T11:15:27;100848.65;;;19.54;52.72
62926;BME280;55732;52.248;-0.844;2023-05-01T11:17:53;100852.63;;;19.26;53.19
62926;BME280;55732;52.248;-0.844;2023-05-01T11:22:53;100852.81;;;19.47;52.34
62926;BME280;55732;52.248;-0.844;2023-05-01T11:25:25;100848.98;;;19.33;52.61
62926;BME280;55732;52.248;-0.844;2023-05-01T11:28:02;100850.27;;;19.31;52.89
62926;BME280;55732;52.248;-0.844;2023-05-01T11:30:38;100849.13;;;19.56;53.10
62926;BME280;55732;52.248;-0.844;2023-05-01T11:33:03;100850.29;;;19.64;52.40
62926;BME280;55732;52.248;-0.844;2023-05-01T11:35:30;100842.63;;;19.58;51.77
62926;BME280;55732;52.248;-0.844;2023-05-01T11:37:56;100846.20;;;19.47;52.14
62926;BME280;55732;52.248;-0.844;2023-05-01T11:40:27;100854.88;;;19.32;52.06
62926;BME280;55732;52.248;-0.844;2023-05-01T11:43:04;100858.86;;;19.15;52.47
62926;BME280;55732;52.248;-0.844;2023-05-01T11:45:30;100860.12;;;18.97;52.85
62926;BME280;55732;52.248;-0.844;2023-05-01T11:47:56;100860.00;;;18.84;53.42
62926;BME280;55732;52.248;-0.844;2023-05-01T11:50:31;100858.30;;;18.76;53.94
62926;BME280;55732;52.248;-0.844;2023-05-01T11:52:56;100858.77;;;18.60;54.11
62926;BME280;55732;52.248;-0.844;2023-05-01T11:55:30;100862.86;;;18.41;54.16
62926;BME280;55732;52.248;-0.844;2023-05-01T11:57:56;100865.73;;;18.22;54.60
62926;BME280;55732;52.248;-0.844;2023-05-01T12:03:02;100876.66;;;17.74;55.13
62926;BME280;55732;52.248;-0.844;2023-05-01T12:05:31;100884.52;;;17.51;55.37
62926;BME280;55732;52.248;-0.844;2023-05-01T12:10:34;100886.34;;;17.27;55.89
62926;BME280;55732;52.248;-0.844;2023-05-01T12:13:02;100885.82;;;17.27;55.42
62926;BME280;55732;52.248;-0.844;2023-05-01T12:15:28;100886.59;;;17.32;55.56
62926;BME280;55732;52.248;-0.844;2023-05-01T12:17:55;100880.80;;;17.43;55.79
62926;BME280;55732;52.248;-0.844;2023-05-01T12:20:45;100876.10;;;17.53;55.62
62926;BME280;55732;52.248;-0.844;2023-05-01T12:23:17;100870.99;;;17.66;55.28
62926;BME280;55732;52.248;-0.844;2023-05-01T12:25:43;100870.39;;;17.82;54.99
62926;BME280;55732;52.248;-0.844;2023-05-01T12:28:13;100875.32;;;17.91;54.64
62926;BME280;55732;52.248;-0.844;2023-05-01T12:30:41;100879.71;;;18.00;54.81
62926;BME280;55732;52.248;-0.844;2023-05-01T12:33:07;100883.42;;;18.08;54.68
62926;BME280;55732;52.248;-0.844;2023-05-01T12:35:33;100887.63;;;18.04;54.58
62926;BME280;55732;52.248;-0.844;2023-05-01T12:37:59;100884.28;;;17.96;54.90
62926;BME280;55732;52.248;-0.844;2023-05-01T12:40:25;100879.10;;;17.90;55.24
62926;BME280;55732;52.248;-0.844;2023-05-01T12:42:56;100880.27;;;17.86;55.48
62926;BME280;55732;52.248;-0.844;2023-05-01T12:45:23;100887.41;;;17.79;55.80
62926;BME280;55732;52.248;-0.844;2023-05-01T12:47:49;100884.78;;;17.77;56.14
62926;BME280;55732;52.248;-0.844;2023-05-01T12:50:14;100887.33;;;17.75;56.06
62926;BME280;55732;52.248;-0.844;2023-05-01T12:52:40;100880.38;;;17.69;56.34
62926;BME280;55732;52.248;-0.844;2023-05-01T12:55:06;100882.11;;;17.69;56.67
62926;BME280;55732;52.248;-0.844;2023-05-01T12:57:33;100881.42;;;17.69;56.54
62926;BME280;55732;52.248;-0.844;2023-05-01T13:00:00;100884.33;;;17.67;56.54
62926;BME280;55732;52.248;-0.844;2023-05-01T13:02:30;100887.07;;;17.64;56.20
62926;BME280;55732;52.248;-0.844;2023-05-01T13:05:14;100883.03;;;17.60;55.94
62926;BME280;55732;52.248;-0.844;2023-05-01T13:07:47;100889.23;;;17.55;55.76
62926;BME280;55732;52.248;-0.844;2023-05-01T13:10:13;100893.16;;;17.48;55.81
62926;BME280;55732;52.248;-0.844;2023-05-01T13:12:43;100896.98;;;17.45;56.06
62926;BME280;55732;52.248;-0.844;2023-05-01T13:15:19;100895.97;;;17.42;56.00
62926;BME280;55732;52.248;-0.844;2023-05-01T13:17:45;100894.17;;;17.43;56.03
62926;BME280;55732;52.248;-0.844;2023-05-01T13:20:11;100898.27;;;17.50;56.02
62926;BME280;55732;52.248;-0.844;2023-05-01T13:22:38;100901.77;;;17.59;55.44
62926;BME280;55732;52.248;-0.844;2023-05-01T13:25:13;100902.48;;;17.67;54.78
62926;BME280;55732;52.248;-0.844;2023-05-01T13:27:40;100907.31;;;17.73;54.10
62926;BME280;55732;52.248;-0.844;2023-05-01T13:30:06;100904.23;;;17.82;53.56
62926;BME280;55732;52.248;-0.844;2023-05-01T13:32:32;100905.29;;;17.96;53.32